メインページ
METAR-TAF:

METAR-TAF

空港 :

イサカ, ニューヨーク, アメリカ合衆国

緯度: 42-29N, 経度: 076-27W, 海抜: 335m

現時点の気象観測

当レポートは43分前の12:56(UTC)に作成
南西の風 5kt
気温 26°C
湿度 79%
気圧 1013 hPa
視程: 14.5km
晴天

METAR: KITH 201256Z 22005KT 9SM CLR 26/22 A2992 RMK AO2 SLP122 T02610222

時間: 09:39 (13:39 UTC)

予報

当レポートは2時間19分前の11:20(UTC)に作成
予報は20日の 12時(UTC)から 21日の 12時(UTC)まで有効
西/南西の風 5kt
視程: 10km
高度6000ftの千切れ雲あり
20日の 1900時(UTC)から
西の風 9kt
視程: 10km
高度5000ftの千切れ雲あり
21日の 0300時(UTC)から
南西の風 4kt
視程: 10km
高度6000ftの雲は散在している
高度10000ftの千切れ雲あり

TAF: KITH 201120Z 2012/2112 24005KT P6SM BKN060 FM201900 26009KT P6SM BKN050 FM210300 23004KT P6SM SCT060 BKN100

4,000以上の空港の気象観測と天気予報(METAR報とTAF報)

利用可能な観測所は地図上に黄色い丸と赤い丸で示す。

丸の上にカーソルを重ねると観測所名を参照できる。

次にクリックすると気象観測と天気予報を参照できる。

マップの切り替え:黒色「×」印の緑ボタンをクリックして拡大、「-」印の緑ボタンをクリックして縮小、緑色の三角印をクリックして隣りの地図に切り替え


METAR-TAF: